createdAt,value
2022-09-07T00:01:48.473Z,27.73
2022-09-07T00:08:33.793Z,27.83
2022-09-07T00:15:22.628Z,27.15
2022-09-07T00:22:08.468Z,27.58
2022-09-07T00:28:55.480Z,27.57
2022-09-07T00:35:46.486Z,27.54
2022-09-07T00:42:32.027Z,27.50
2022-09-07T00:49:21.114Z,27.53
2022-09-07T00:56:10.422Z,27.04
2022-09-07T01:02:59.912Z,27.16
2022-09-07T01:09:47.907Z,26.65
2022-09-07T01:16:53.923Z,26.92
2022-09-07T01:24:12.145Z,26.92
2022-09-07T01:31:07.630Z,26.48
2022-09-07T01:38:02.927Z,26.31
2022-09-07T01:44:53.011Z,26.29
2022-09-07T01:51:47.058Z,26.21
2022-09-07T01:58:38.088Z,26.28
2022-09-07T02:05:28.332Z,26.32
2022-09-07T02:12:23.139Z,26.09
2022-09-07T02:19:14.166Z,26.08
2022-09-07T02:26:05.401Z,26.10
2022-09-07T02:32:53.876Z,24.92
2022-09-07T02:39:39.828Z,26.15
2022-09-07T03:00:21.144Z,25.49
2022-09-07T03:07:13.507Z,25.42
2022-09-07T03:14:17.650Z,25.46
2022-09-07T03:21:05.831Z,25.61
2022-09-07T03:27:51.439Z,25.71
2022-09-07T03:34:37.000Z,25.76
2022-09-07T03:41:25.193Z,25.80
2022-09-07T03:48:10.785Z,25.83
2022-09-07T03:54:56.403Z,25.51
2022-09-07T04:01:44.655Z,25.80
2022-09-07T04:08:31.463Z,25.75
2022-09-07T04:15:17.126Z,25.74
2022-09-07T04:22:05.308Z,25.75
2022-09-07T04:28:51.692Z,25.75
2022-09-07T04:35:39.879Z,25.71
2022-09-07T04:42:28.091Z,25.52
2022-09-07T04:49:15.690Z,25.48
2022-09-07T04:56:01.980Z,25.82
2022-09-07T05:02:50.246Z,25.80
2022-09-07T05:09:36.731Z,25.80
2022-09-07T05:16:24.633Z,25.80
2022-09-07T05:23:12.964Z,25.81
2022-09-07T05:37:04.837Z,24.56
2022-09-07T05:50:59.314Z,25.57
2022-09-07T05:57:44.894Z,25.83
2022-09-07T06:04:33.124Z,25.70
2022-09-07T06:11:20.840Z,25.33
2022-09-07T06:18:06.512Z,25.79
2022-09-07T06:24:54.491Z,25.96
2022-09-07T06:38:47.076Z,25.98
2022-09-07T06:45:35.290Z,26.16
2022-09-07T06:52:20.876Z,26.33
2022-09-07T06:59:06.450Z,26.34
2022-09-07T07:05:59.664Z,25.70
2022-09-07T07:19:29.640Z,25.60
2022-09-07T07:26:20.383Z,25.50
2022-09-07T07:33:08.132Z,25.39
2022-09-07T07:47:02.524Z,25.44
2022-09-07T07:53:48.439Z,25.67
2022-09-07T08:00:53.020Z,25.99
2022-09-07T08:07:41.855Z,26.17
2022-09-07T08:14:27.564Z,26.03
2022-09-07T08:21:15.287Z,26.47
2022-09-07T08:28:04.083Z,26.64
2022-09-07T08:34:49.437Z,26.76
2022-09-07T08:42:03.749Z,26.93
2022-09-07T08:48:52.780Z,27.26
2022-09-07T08:55:43.465Z,27.41
2022-09-07T09:02:32.694Z,27.56
2022-09-07T09:09:34.558Z,27.88
2022-09-07T09:16:27.360Z,28.28
2022-09-07T09:23:17.208Z,28.58
2022-09-07T09:30:05.223Z,28.88
2022-09-07T09:36:53.130Z,29.11
2022-09-07T09:43:47.417Z,29.17
2022-09-07T10:05:02.991Z,30.01
2022-09-07T10:12:10.840Z,30.04
2022-09-07T10:18:59.864Z,30.25
2022-09-07T10:25:47.584Z,30.13
2022-09-07T10:32:53.235Z,30.70
2022-09-07T10:39:42.591Z,30.83
2022-09-07T10:46:58.532Z,30.43
2022-09-07T11:01:15.543Z,31.40
2022-09-07T11:08:20.159Z,31.54
2022-09-07T11:15:20.545Z,31.59
2022-09-07T11:22:20.416Z,31.73
2022-09-07T11:29:31.117Z,31.83
2022-09-07T11:36:21.953Z,31.91
2022-09-07T11:43:15.216Z,31.85
2022-09-07T11:50:00.802Z,31.87
2022-09-07T11:56:56.669Z,31.98
2022-09-07T12:04:24.715Z,32.15
2022-09-07T12:11:28.742Z,32.03
2022-09-07T12:18:34.927Z,32.28
2022-09-07T12:25:22.156Z,32.16
2022-09-07T12:32:53.638Z,32.50
2022-09-07T12:39:28.583Z,32.63
2022-09-07T12:46:23.802Z,32.53
2022-09-07T12:53:31.449Z,32.73
2022-09-07T13:00:51.347Z,32.66
2022-09-07T13:08:09.312Z,32.74
2022-09-07T13:14:58.360Z,32.24
2022-09-07T13:21:50.157Z,32.83
2022-09-07T13:28:56.016Z,32.87
2022-09-07T13:35:42.123Z,32.83
2022-09-07T13:42:35.558Z,32.81
2022-09-07T13:49:41.995Z,32.89
2022-09-07T13:56:42.919Z,32.74
2022-09-07T14:03:40.683Z,32.58
2022-09-07T14:10:29.311Z,32.54
2022-09-07T14:17:19.017Z,32.25
2022-09-07T14:24:10.564Z,32.09
2022-09-07T14:30:56.451Z,32.47
2022-09-07T14:37:43.120Z,32.49
2022-09-07T14:44:40.472Z,32.41
2022-09-07T14:51:35.480Z,32.40
2022-09-07T14:58:27.907Z,32.37
2022-09-07T15:05:29.187Z,32.40
2022-09-07T15:12:32.992Z,32.43
2022-09-07T15:19:34.296Z,32.35
2022-09-07T15:33:28.569Z,32.41
2022-09-07T15:40:20.698Z,32.43
2022-09-07T15:54:14.927Z,32.45
2022-09-07T16:08:27.686Z,32.35
2022-09-07T16:15:14.276Z,31.91
2022-09-07T16:21:59.700Z,32.19
2022-09-07T16:28:50.769Z,32.14
2022-09-07T16:35:36.120Z,32.12
2022-09-07T16:42:22.663Z,32.12
2022-09-07T16:49:11.056Z,31.58
2022-09-07T16:55:58.636Z,32.05
2022-09-07T17:02:44.469Z,31.99
2022-09-07T17:09:32.807Z,31.92
2022-09-07T17:16:22.351Z,31.86
2022-09-07T17:23:07.829Z,31.84
2022-09-07T17:29:57.027Z,31.69
2022-09-07T17:36:42.811Z,31.32
2022-09-07T17:43:45.694Z,31.75
2022-09-07T17:50:33.884Z,31.66
2022-09-07T17:57:19.621Z,31.24
2022-09-07T18:04:05.671Z,31.55
2022-09-07T18:18:00.183Z,31.38
2022-09-07T18:24:46.056Z,31.29
2022-09-07T18:31:34.159Z,31.15
2022-09-07T18:38:19.512Z,31.07
2022-09-07T18:59:18.686Z,30.47
2022-09-07T19:06:07.785Z,30.17
2022-09-07T19:12:55.812Z,30.13
2022-09-07T19:19:42.196Z,30.16
2022-09-07T19:26:29.681Z,30.16
2022-09-07T19:33:17.687Z,30.12
2022-09-07T19:40:03.393Z,30.09
2022-09-07T19:46:48.904Z,30.03
2022-09-07T19:53:40.362Z,29.95
2022-09-07T20:00:26.120Z,29.90
2022-09-07T20:07:11.541Z,29.62
2022-09-07T20:13:59.803Z,29.64
2022-09-07T20:20:45.185Z,29.60
2022-09-07T20:27:30.651Z,29.55
2022-09-07T20:34:18.811Z,29.42
2022-09-07T20:41:04.853Z,29.38
2022-09-07T20:47:50.245Z,29.38
2022-09-07T20:54:38.855Z,29.34
2022-09-07T21:01:24.616Z,29.18
2022-09-07T21:08:10.129Z,29.24
2022-09-07T21:14:57.859Z,29.30
2022-09-07T21:21:46.128Z,29.03
2022-09-07T21:28:32.213Z,28.90
2022-09-07T21:35:20.624Z,28.79
2022-09-07T21:42:06.232Z,28.74
2022-09-07T21:48:51.802Z,28.66
2022-09-07T21:55:39.767Z,28.55
2022-09-07T22:02:25.207Z,28.54
2022-09-07T22:09:10.872Z,28.66
2022-09-07T22:15:59.038Z,28.38
2022-09-07T22:22:46.313Z,28.24
2022-09-07T22:29:32.049Z,28.14
2022-09-07T22:36:23.056Z,27.95
2022-09-07T22:43:08.401Z,27.90
2022-09-07T22:49:53.849Z,27.88
2022-09-07T22:56:42.168Z,27.78
2022-09-07T23:03:27.950Z,27.74
2022-09-07T23:10:13.639Z,27.66
2022-09-07T23:17:01.523Z,27.88
2022-09-07T23:23:47.021Z,27.63
2022-09-07T23:30:32.212Z,27.71
2022-09-07T23:37:20.381Z,27.29
2022-09-07T23:44:06.621Z,27.41
2022-09-07T23:50:53.051Z,27.25
2022-09-07T23:57:41.683Z,27.14
